createdAt,value
2023-02-16T00:03:29.665Z,24.1
2023-02-16T00:09:08.466Z,23.6
2023-02-16T00:14:30.896Z,23.3
2023-02-16T00:19:53.364Z,23.3
2023-02-16T00:25:15.914Z,23.6
2023-02-16T00:30:53.930Z,24.1
2023-02-16T00:36:32.757Z,24.4
2023-02-16T00:41:54.947Z,24
2023-02-16T00:47:02.021Z,23.6
2023-02-16T00:52:17.393Z,23.8
2023-02-16T00:57:54.198Z,24.3
2023-02-16T01:03:32.512Z,24.3
2023-02-16T01:09:10.412Z,24
2023-02-16T01:14:46.458Z,24.1
2023-02-16T01:20:23.055Z,24.5
2023-02-16T01:25:45.684Z,24.3
2023-02-16T01:31:24.149Z,23.8
2023-02-16T01:37:02.763Z,23.4
2023-02-16T01:42:39.929Z,23.3
2023-02-16T01:48:02.219Z,23.7
2023-02-16T01:53:39.333Z,24.1
2023-02-16T01:59:15.798Z,24.5
2023-02-16T02:04:54.158Z,24.1
2023-02-16T02:10:30.818Z,23.6
2023-02-16T02:16:08.527Z,23.3
2023-02-16T02:21:31.260Z,23.3
2023-02-16T02:26:52.530Z,23.7
2023-02-16T02:32:31.868Z,24.2
2023-02-16T02:38:08.804Z,24.4
2023-02-16T02:43:46.798Z,24.1
2023-02-16T02:49:08.929Z,23.5
2023-02-16T02:54:45.959Z,23.3
2023-02-16T03:00:07.107Z,23.3
2023-02-16T03:05:13.287Z,23.7
2023-02-16T03:10:36.257Z,23.8
2023-02-16T03:15:42.492Z,23.6
2023-02-16T03:21:20.426Z,23.7
2023-02-16T03:26:57.226Z,24.1
2023-02-16T03:32:36.609Z,24.4
2023-02-16T03:38:14.090Z,24.1
2023-02-16T03:43:51.696Z,23.6
2023-02-16T03:49:14.100Z,23.8
2023-02-16T03:54:35.392Z,24.2
2023-02-16T04:00:15.878Z,24.5
2023-02-16T04:05:38.483Z,24.1
2023-02-16T04:11:16.155Z,23.6
2023-02-16T04:16:56.170Z,23.3
2023-02-16T04:22:17.739Z,23.3
2023-02-16T04:27:54.685Z,23.7
2023-02-16T04:33:34.481Z,24.1
2023-02-16T04:39:12.840Z,24.5
2023-02-16T04:44:35.604Z,24.2
2023-02-16T04:50:13.643Z,23.7
2023-02-16T04:55:35.507Z,23.9
2023-02-16T05:01:12.728Z,24.1
2023-02-16T05:06:51.293Z,23.9
2023-02-16T05:12:29.098Z,23.8
2023-02-16T05:17:52.423Z,24.2
2023-02-16T05:23:30.338Z,24.5
2023-02-16T05:29:08.613Z,24.3
2023-02-16T05:34:50.133Z,23.8
2023-02-16T05:40:28.476Z,23.4
2023-02-16T05:46:05.810Z,23.3
2023-02-16T05:51:44.687Z,23.6
2023-02-16T05:57:21.845Z,24.1
2023-02-16T06:03:00.608Z,24.4
2023-02-16T06:08:38.546Z,24.3
2023-02-16T06:14:15.037Z,23.8
2023-02-16T06:19:51.481Z,23.8
2023-02-16T06:25:28.976Z,24.2
2023-02-16T06:31:07.793Z,24.6
2023-02-16T06:36:46.947Z,24.3
2023-02-16T06:42:24.957Z,23.8
2023-02-16T06:48:02.970Z,23.9
2023-02-16T06:53:42.235Z,24.1
2023-02-16T06:59:07.170Z,23.9
2023-02-16T07:04:47.256Z,24
2023-02-16T07:10:08.094Z,24.4
2023-02-16T07:15:53.356Z,24.4
2023-02-16T07:21:30.761Z,23.9
2023-02-16T07:27:07.474Z,23.4
2023-02-16T07:32:46.820Z,23.3
2023-02-16T07:38:25.070Z,23.6
2023-02-16T07:44:02.347Z,24.1
2023-02-16T07:49:40.632Z,24.4
2023-02-16T07:55:17.846Z,23.9
2023-02-16T08:00:55.808Z,23.4
2023-02-16T08:06:38.349Z,23.2
2023-02-16T08:12:17.565Z,22.9
2023-02-16T08:17:59.461Z,23
2023-02-16T08:23:48.297Z,23.4
2023-02-16T08:29:11.180Z,23.9
2023-02-16T08:34:34.314Z,23.7
2023-02-16T08:40:12.073Z,23.3
2023-02-16T08:45:50.838Z,22.9
2023-02-16T08:51:28.126Z,22.9
2023-02-16T08:57:07.747Z,23.3
2023-02-16T09:02:49.033Z,23.9
2023-02-16T09:08:25.789Z,23.6
2023-02-16T09:13:16.924Z,23.3
2023-02-16T09:18:41.216Z,23.1
2023-02-16T09:24:19.772Z,23.6
2023-02-16T09:29:57.067Z,23.8
2023-02-16T09:35:35.049Z,23.4
2023-02-16T09:41:11.850Z,23.1
2023-02-16T09:46:49.682Z,23.4
2023-02-16T09:52:58.365Z,23.9
2023-02-16T09:58:36.270Z,23.5
2023-02-16T10:03:59.594Z,23.3
2023-02-16T10:09:06.569Z,23.3
2023-02-16T10:14:43.890Z,23.9
2023-02-16T10:20:22.887Z,23.8
2023-02-16T10:25:59.547Z,23.4
2023-02-16T10:31:37.396Z,23.3
2023-02-16T10:37:14.818Z,23.7
2023-02-16T10:42:52.617Z,23.9
2023-02-16T10:48:32.469Z,23.5
2023-02-16T10:53:54.779Z,23.3
2023-02-16T10:59:32.066Z,23.5
2023-02-16T11:05:12.600Z,23.9
2023-02-16T11:10:35.147Z,23.6
2023-02-16T11:16:12.769Z,23.3
2023-02-16T11:21:50.257Z,23.3
2023-02-16T11:27:26.470Z,23.9
2023-02-16T11:33:05.679Z,23.7
2023-02-16T11:38:42.658Z,23.4
2023-02-16T11:44:35.213Z,23.4
2023-02-16T11:49:58.238Z,23.9
2023-02-16T11:55:34.905Z,23.8
2023-02-16T12:01:12.696Z,23.4
2023-02-16T12:06:52.287Z,23.3
2023-02-16T12:12:30.149Z,23.8
2023-02-16T12:18:08.604Z,23.8
2023-02-16T12:23:46.889Z,23.4
2023-02-16T12:29:23.862Z,23.3
2023-02-16T12:35:03.328Z,23.8
2023-02-16T12:40:40.024Z,23.8
2023-02-16T12:46:22.400Z,23.4
2023-02-16T12:51:45.821Z,23.3
2023-02-16T12:57:24.012Z,23.8
2023-02-16T13:03:04.109Z,23.9
2023-02-16T13:08:43.128Z,23.5
2023-02-16T13:14:20.678Z,23.3
2023-02-16T13:20:06.872Z,23.7
2023-02-16T13:25:49.237Z,23.9
2023-02-16T13:31:29.519Z,23.6
2023-02-16T13:37:10.032Z,23.4
2023-02-16T13:42:47.177Z,23.6
2023-02-16T13:48:24.901Z,24.1
2023-02-16T13:53:45.963Z,23.8
2023-02-16T13:59:07.760Z,23.5
2023-02-16T14:04:30.124Z,23.6
2023-02-16T14:10:07.659Z,24.1
2023-02-16T14:15:45.190Z,24
2023-02-16T14:21:24.968Z,23.6
2023-02-16T14:27:02.024Z,23.5
2023-02-16T14:32:39.752Z,23.9
2023-02-16T14:38:18.580Z,24.1
2023-02-16T14:44:18.138Z,23.7
2023-02-16T14:49:55.670Z,23.5
2023-02-16T14:55:33.970Z,23.7
2023-02-16T15:01:12.951Z,24.3
2023-02-16T15:06:34.858Z,23.9
2023-02-16T15:12:12.375Z,23.6
2023-02-16T15:17:49.271Z,23.5
2023-02-16T15:23:26.770Z,24.1
2023-02-16T15:29:04.551Z,24.1
2023-02-16T15:34:45.074Z,23.7
2023-02-16T15:40:41.882Z,23.5
2023-02-16T15:46:20.083Z,23.7
2023-02-16T15:51:59.916Z,24.1
2023-02-16T15:57:20.945Z,23.8
2023-02-16T16:03:06.682Z,23.5
2023-02-16T16:08:44.156Z,23.5
2023-02-16T16:14:05.573Z,24
2023-02-16T16:19:29.201Z,23.9
2023-02-16T16:24:52.715Z,23.6
2023-02-16T16:30:29.688Z,23.4
2023-02-16T16:36:08.292Z,23.6
2023-02-16T16:42:00.559Z,24.1
2023-02-16T16:47:22.277Z,23.8
2023-02-16T16:52:59.846Z,23.5
2023-02-16T16:58:22.385Z,23.4
2023-02-16T17:04:00.013Z,23.9
2023-02-16T17:09:37.331Z,23.8
2023-02-16T17:15:14.751Z,23.4
2023-02-16T17:20:51.891Z,23.3
2023-02-16T17:26:22.712Z,23.4
2023-02-16T17:32:01.155Z,23.9
2023-02-16T17:37:22.730Z,23.5
2023-02-16T17:43:02.363Z,23.3
2023-02-16T17:48:24.244Z,23.1
2023-02-16T17:53:30.313Z,23.4
2023-02-16T17:59:09.074Z,23.8
2023-02-16T18:04:34.377Z,23.5
2023-02-16T18:10:11.730Z,23.2
2023-02-16T18:15:34.317Z,23.1
2023-02-16T18:21:14.826Z,23
2023-02-16T18:33:00.040Z,23.8
2023-02-16T18:38:24.789Z,23.4
2023-02-16T18:43:46.564Z,23
2023-02-16T18:49:25.630Z,22.8
2023-02-16T18:55:02.725Z,22.6
2023-02-16T19:00:40.775Z,22.7
2023-02-16T19:06:18.504Z,23.1
2023-02-16T19:11:56.207Z,23.4
2023-02-16T19:17:33.378Z,23.6
2023-02-16T19:23:11.398Z,23.7
2023-02-16T19:28:34.320Z,23.3
2023-02-16T19:34:11.437Z,22.9
2023-02-16T19:39:33.959Z,22.7
2023-02-16T19:44:56.397Z,22.9
2023-02-16T19:50:18.016Z,23.4
2023-02-16T19:55:40.559Z,23.7
2023-02-16T20:01:18.332Z,23.3
2023-02-16T20:06:43.256Z,22.9
2023-02-16T20:12:21.225Z,22.6
2023-02-16T20:17:58.696Z,22.8
2023-02-16T20:23:19.713Z,23.3
2023-02-16T20:28:57.752Z,23.6
2023-02-16T20:34:35.469Z,23.3
2023-02-16T20:39:41.580Z,22.8
2023-02-16T20:45:03.524Z,22.6
2023-02-16T20:50:10.349Z,22.4
2023-02-16T20:55:48.251Z,22.4
2023-02-16T21:01:39.956Z,22.8
2023-02-16T21:07:17.921Z,23.4
2023-02-16T21:12:55.792Z,23.6
2023-02-16T21:18:18.092Z,23.3
2023-02-16T21:24:08.141Z,22.8
2023-02-16T21:29:44.436Z,22.6
2023-02-16T21:35:06.199Z,22.4
2023-02-16T21:40:12.916Z,22.4
2023-02-16T21:45:50.398Z,22.8
2023-02-16T21:51:28.076Z,23.3
2023-02-16T21:56:49.707Z,23.5
2023-02-16T22:02:27.025Z,23.6
2023-02-16T22:08:05.234Z,23.6
2023-02-16T22:13:43.008Z,23.2
2023-02-16T22:19:23.586Z,22.8
2023-02-16T22:25:00.531Z,22.6
2023-02-16T22:30:38.317Z,22.4
2023-02-16T22:36:16.227Z,22.6
2023-02-16T22:41:53.925Z,23
2023-02-16T22:47:32.717Z,23.6
2023-02-16T22:53:09.588Z,23.4
2023-02-16T22:58:33.567Z,23
2023-02-16T23:03:56.122Z,22.6
2023-02-16T23:09:18.254Z,22.5
2023-02-16T23:14:55.391Z,22.8
2023-02-16T23:20:33.417Z,23.3
2023-02-16T23:26:10.416Z,23.6
2023-02-16T23:31:47.881Z,23.3
2023-02-16T23:37:24.980Z,22.8
2023-02-16T23:43:02.551Z,22.6
2023-02-16T23:48:40.218Z,22.6
2023-02-16T23:54:17.897Z,23.1
2023-02-16T23:59:54.909Z,23.6
